createdAt,value
2022-11-13T00:00:14.827Z,1006.80
2022-11-13T00:05:18.992Z,1006.44
2022-11-13T00:10:23.138Z,1006.40
2022-11-13T00:15:27.312Z,1006.45
2022-11-13T00:20:31.455Z,1006.64
2022-11-13T00:25:35.634Z,1006.50
2022-11-13T00:30:39.781Z,1007.19
2022-11-13T00:35:44.008Z,1007.27
2022-11-13T00:40:48.147Z,1007.25
2022-11-13T00:45:52.278Z,1007.24
2022-11-13T00:50:56.439Z,1007.26
2022-11-13T00:56:00.665Z,1007.18
2022-11-13T01:01:04.776Z,1007.20
2022-11-13T01:06:08.969Z,1007.19
2022-11-13T01:11:13.109Z,1007.09
2022-11-13T01:16:17.276Z,1007.10
2022-11-13T01:21:21.416Z,1006.98
2022-11-13T01:26:25.605Z,1007.01
2022-11-13T01:31:29.796Z,1006.91
2022-11-13T01:36:33.923Z,1006.84
2022-11-13T01:41:38.057Z,1006.74
2022-11-13T01:46:42.248Z,1006.70
2022-11-13T01:51:46.394Z,1006.65
2022-11-13T01:56:50.553Z,1006.62
2022-11-13T02:01:54.786Z,1006.54
2022-11-13T02:12:03.082Z,1006.45
2022-11-13T02:17:07.214Z,1006.36
2022-11-13T02:22:11.402Z,1006.25
2022-11-13T02:27:15.544Z,1006.33
2022-11-13T02:32:19.717Z,1006.32
2022-11-13T02:37:23.902Z,1006.36
2022-11-13T02:42:28.029Z,1006.41
2022-11-13T02:47:32.212Z,1006.47
2022-11-13T02:52:36.387Z,1006.59
2022-11-13T02:57:40.541Z,1006.64
2022-11-13T03:02:44.724Z,1006.59
2022-11-13T03:07:48.861Z,1006.62
2022-11-13T03:12:53.048Z,1006.70
2022-11-13T03:17:57.190Z,1006.74
2022-11-13T03:23:01.361Z,1006.84
2022-11-13T03:28:05.514Z,1006.84
2022-11-13T03:33:09.679Z,1006.92
2022-11-13T03:38:13.862Z,1006.73
2022-11-13T03:43:18.019Z,1006.67
2022-11-13T03:48:22.199Z,1006.61
2022-11-13T03:53:26.346Z,1006.47
2022-11-13T03:58:30.732Z,1006.53
2022-11-13T04:03:34.729Z,1006.56
2022-11-13T04:08:36.947Z,1006.64
2022-11-13T04:13:41.120Z,1006.69
2022-11-13T04:18:45.242Z,1006.57
2022-11-13T04:23:49.401Z,1006.54
2022-11-13T04:28:53.558Z,1006.40
2022-11-13T04:33:57.757Z,1006.47
2022-11-13T04:39:01.910Z,1006.45
2022-11-13T04:44:06.061Z,1006.51
2022-11-13T04:49:10.206Z,1006.52
2022-11-13T04:54:14.436Z,1006.48
2022-11-13T04:59:18.558Z,1006.51
2022-11-13T05:04:22.743Z,1006.56
2022-11-13T05:09:26.879Z,1006.61
2022-11-13T05:14:31.040Z,1006.61
2022-11-13T05:19:35.230Z,1006.69
2022-11-13T05:24:39.370Z,1006.68
2022-11-13T05:29:43.548Z,1006.78
2022-11-13T05:34:47.693Z,1006.76
2022-11-13T05:39:51.857Z,1006.78
2022-11-13T05:44:56.055Z,1006.75
2022-11-13T05:50:00.223Z,1006.79
2022-11-13T05:55:04.380Z,1006.76
2022-11-13T06:00:08.515Z,1006.77
2022-11-13T06:05:12.668Z,1006.76
2022-11-13T06:10:16.860Z,1006.81
2022-11-13T06:15:21.004Z,1006.93
2022-11-13T06:20:25.183Z,1006.91
2022-11-13T06:25:29.351Z,1006.91
2022-11-13T06:30:33.495Z,1007.06
2022-11-13T06:35:37.723Z,1007.15
2022-11-13T06:40:41.865Z,1007.18
2022-11-13T06:45:45.990Z,1007.13
2022-11-13T06:50:50.167Z,1007.02
2022-11-13T06:55:54.334Z,1007.00
2022-11-13T07:00:58.560Z,1006.85
2022-11-13T07:06:02.667Z,1006.86
2022-11-13T07:11:06.817Z,1006.86
2022-11-13T07:16:16.952Z,1006.79
2022-11-13T07:21:15.159Z,1006.76
2022-11-13T07:26:19.293Z,1006.67
2022-11-13T07:31:23.490Z,1006.57
2022-11-13T07:36:27.663Z,1006.40
2022-11-13T07:41:31.822Z,1006.31
2022-11-13T07:46:35.946Z,1006.30
2022-11-13T07:51:40.142Z,1006.12
2022-11-13T07:56:44.320Z,1006.01
2022-11-13T08:01:48.470Z,1005.95
2022-11-13T08:06:52.693Z,1005.80
2022-11-13T08:11:56.766Z,1005.77
2022-11-13T08:17:00.987Z,1005.87
2022-11-13T08:22:05.124Z,1005.88
2022-11-13T08:27:09.280Z,1005.91
2022-11-13T08:32:13.424Z,1005.97
2022-11-13T08:37:17.616Z,1005.99
2022-11-13T08:42:21.763Z,1006.12
2022-11-13T08:47:29.454Z,1006.19
2022-11-13T08:52:30.108Z,1006.18
2022-11-13T08:57:34.247Z,1006.14
2022-11-13T09:02:38.454Z,1006.09
2022-11-13T09:07:42.598Z,1006.15
2022-11-13T09:17:50.921Z,1006.11
2022-11-13T09:22:55.099Z,1006.07
2022-11-13T09:27:59.243Z,1006.07
2022-11-13T09:33:03.398Z,1006.31
2022-11-13T09:38:11.221Z,1006.39
2022-11-13T09:43:09.836Z,1006.46
2022-11-13T09:48:13.997Z,1006.38
2022-11-13T09:53:18.164Z,1006.67
2022-11-13T09:58:22.325Z,1006.90
2022-11-13T10:03:54.282Z,1006.88
2022-11-13T10:08:29.121Z,1007.12
2022-11-13T10:13:32.922Z,1007.23
2022-11-13T10:18:37.098Z,1007.42
2022-11-13T10:23:41.270Z,1008.00
2022-11-13T10:28:51.119Z,1008.30
2022-11-13T10:33:49.586Z,1008.30
2022-11-13T10:38:53.732Z,1008.27
2022-11-13T10:43:57.900Z,1008.40
2022-11-13T10:49:02.062Z,1009.14
2022-11-13T10:54:06.227Z,1009.40
2022-11-13T10:59:10.386Z,1009.60
2022-11-13T11:04:14.553Z,1009.68
2022-11-13T11:09:18.675Z,1009.50
2022-11-13T11:14:22.860Z,1009.44
2022-11-13T11:19:27.004Z,1009.81
2022-11-13T11:24:31.195Z,1010.03
2022-11-13T11:29:35.362Z,1009.86
2022-11-13T11:34:39.519Z,1009.82
2022-11-13T11:39:43.647Z,1009.93
2022-11-13T11:44:47.811Z,1010.05
2022-11-13T11:49:52.027Z,1010.01
2022-11-13T11:54:56.160Z,1009.92
2022-11-13T12:00:00.318Z,1009.87
2022-11-13T12:05:04.590Z,1010.06
2022-11-13T12:10:08.653Z,1009.59
2022-11-13T12:15:12.785Z,1009.84
2022-11-13T12:20:16.972Z,1009.57
2022-11-13T12:25:21.113Z,1009.27
2022-11-13T12:30:25.267Z,1009.44
2022-11-13T12:35:29.415Z,1009.03
2022-11-13T12:40:33.614Z,1008.87
2022-11-13T12:45:37.727Z,1009.07
2022-11-13T12:50:41.914Z,1009.10
2022-11-13T12:55:46.105Z,1009.00
2022-11-13T13:00:50.215Z,1008.89
2022-11-13T13:05:54.399Z,1008.78
2022-11-13T13:10:58.551Z,1008.70
2022-11-13T13:16:02.740Z,1008.87
2022-11-13T13:21:06.864Z,1010.06
2022-11-13T13:26:11.022Z,1010.32
2022-11-13T13:31:15.180Z,1010.45
2022-11-13T13:36:19.361Z,1010.40
2022-11-13T13:41:23.515Z,1010.46
2022-11-13T13:46:27.652Z,1010.31
2022-11-13T13:51:31.843Z,1010.37
2022-11-13T13:56:35.986Z,1010.35
2022-11-13T14:01:40.193Z,1010.29
2022-11-13T14:06:44.382Z,1010.26
2022-11-13T14:11:48.517Z,1010.31
2022-11-13T14:16:52.621Z,1010.29
2022-11-13T14:21:56.766Z,1010.25
2022-11-13T14:27:00.946Z,1010.29
2022-11-13T14:32:05.135Z,1010.30
2022-11-13T14:37:09.252Z,1010.23
2022-11-13T14:42:13.426Z,1010.22
2022-11-13T14:47:17.607Z,1010.11
2022-11-13T14:52:21.760Z,1010.03
2022-11-13T14:57:25.910Z,1009.97
2022-11-13T15:02:30.073Z,1009.82
2022-11-13T15:07:34.227Z,1009.80
2022-11-13T15:12:38.398Z,1009.66
2022-11-13T15:17:42.526Z,1009.76
2022-11-13T15:22:46.677Z,1009.77
2022-11-13T15:27:50.897Z,1009.61
2022-11-13T15:32:55.034Z,1009.23
2022-11-13T15:37:57.379Z,1008.52
2022-11-13T15:43:01.456Z,1008.25
2022-11-13T15:48:05.603Z,1007.90
2022-11-13T15:53:09.782Z,1007.54
2022-11-13T15:58:13.914Z,1007.28
2022-11-13T16:03:18.115Z,1007.25
2022-11-13T16:08:22.281Z,1007.00
2022-11-13T16:13:26.720Z,1006.83
2022-11-13T16:18:30.594Z,1006.81
2022-11-13T16:23:34.739Z,1006.59
2022-11-13T16:28:59.797Z,1006.56
2022-11-13T16:33:43.075Z,1006.32
2022-11-13T16:38:47.210Z,1006.28
2022-11-13T16:43:51.372Z,1006.29
2022-11-13T16:48:55.537Z,1006.21
2022-11-13T16:53:59.694Z,1005.87
2022-11-13T16:59:03.865Z,1005.69
2022-11-13T17:04:08.037Z,1005.60
2022-11-13T17:09:12.214Z,1005.56
2022-11-13T17:14:16.356Z,1005.59
2022-11-13T17:19:20.530Z,1005.58
2022-11-13T17:24:24.698Z,1005.47
2022-11-13T17:29:28.870Z,1005.37
2022-11-13T17:34:33.009Z,1005.20
2022-11-13T17:39:37.142Z,1005.10
2022-11-13T17:44:41.311Z,1004.87
2022-11-13T17:54:49.661Z,1004.75
2022-11-13T17:59:53.889Z,1004.40
2022-11-13T18:04:57.995Z,1004.22
2022-11-13T18:10:02.144Z,1003.88
2022-11-13T18:15:06.279Z,1003.75
2022-11-13T18:20:10.468Z,1003.65
2022-11-13T18:25:14.617Z,1003.50
2022-11-13T18:30:18.829Z,1003.37
2022-11-13T18:35:22.929Z,1003.16
2022-11-13T18:40:27.119Z,1003.06
2022-11-13T18:45:31.258Z,1003.13
2022-11-13T18:50:35.421Z,1003.09
2022-11-13T18:55:39.609Z,1003.05
2022-11-13T19:00:43.754Z,1002.95
2022-11-13T19:05:47.921Z,1002.87
2022-11-13T19:10:52.116Z,1002.86
2022-11-13T19:15:56.256Z,1002.77
2022-11-13T19:21:00.406Z,1002.72
2022-11-13T19:26:04.575Z,1002.69
2022-11-13T19:31:08.733Z,1002.51
2022-11-13T19:36:12.893Z,1002.45
2022-11-13T19:41:17.068Z,1002.36
2022-11-13T19:46:21.216Z,1002.12
2022-11-13T19:51:25.428Z,1002.13
2022-11-13T19:56:29.561Z,1001.99
2022-11-13T20:01:33.836Z,1001.95
2022-11-13T20:06:38.035Z,1001.77
2022-11-13T20:11:42.035Z,1001.68
2022-11-13T20:16:46.221Z,1001.62
2022-11-13T20:21:50.356Z,1001.35
2022-11-13T20:26:54.519Z,1000.52
2022-11-13T20:31:58.713Z,1000.36
2022-11-13T20:37:02.904Z,1000.33
2022-11-13T20:42:07.058Z,1000.22
2022-11-13T20:47:11.163Z,1000.12
2022-11-13T20:52:15.342Z,1000.00
2022-11-13T20:57:19.537Z,999.77
2022-11-13T21:02:23.675Z,999.90
2022-11-13T21:07:26.006Z,999.72
2022-11-13T21:12:30.095Z,999.70
2022-11-13T21:17:34.257Z,999.60
2022-11-13T21:22:38.414Z,999.58
2022-11-13T21:27:42.616Z,999.70
2022-11-13T21:32:46.749Z,999.67
2022-11-13T21:37:50.952Z,999.65
2022-11-13T21:42:55.104Z,999.58
2022-11-13T21:47:59.262Z,999.55
2022-11-13T21:53:03.406Z,999.51
2022-11-13T21:58:07.601Z,999.34
2022-11-13T22:03:11.719Z,998.89
2022-11-13T22:08:15.931Z,998.79
2022-11-13T22:13:20.066Z,998.76
2022-11-13T22:18:24.252Z,998.62
2022-11-13T22:23:28.386Z,998.66
2022-11-13T22:28:32.628Z,998.63
2022-11-13T22:33:36.715Z,998.65
2022-11-13T22:38:40.898Z,998.56
2022-11-13T22:43:45.064Z,998.57
2022-11-13T22:48:49.195Z,998.55
2022-11-13T22:53:53.391Z,998.57
2022-11-13T22:58:57.546Z,998.51
2022-11-13T23:04:01.833Z,998.49
2022-11-13T23:09:05.889Z,998.43
2022-11-13T23:14:10.261Z,998.30
2022-11-13T23:19:14.192Z,998.35
2022-11-13T23:24:18.368Z,998.36
2022-11-13T23:29:22.548Z,998.33
2022-11-13T23:34:53.230Z,998.33
2022-11-13T23:39:30.860Z,998.25
2022-11-13T23:44:35.019Z,998.24
2022-11-13T23:49:39.203Z,998.05
2022-11-13T23:54:43.340Z,998.09
2022-11-13T23:59:47.532Z,998.09
